Louise, Texas
Current Conditions -  °F | °C
As of 6:55 PM on Saturday 22 Nov 2014 (Local Time) from KARM Reporting Station
Broken Clouds Broken Clouds  
Wind Chill: 68°   Ceiling: 3300
Heat Index: 68°   Visibility: 10mi
Dew Point: 65°   Wind: 12mph
Humidity: 93%   Direction: 150°SSE
Pressure: 29.8"   Gusts: 20mph
Location:  29.11°N, 96.4°W
Report Text: KARM 230055Z AUTO 15010G17KT 10SM SCT027 BKN033 BKN041 20/19 A2980 RMK AO2 LTG DSNT NE AND SE T01980186
Loading
Personal Weather Stations






























Interactive Weather Map New forecast layout! Learn more

10-Day Weather Forecast

Advertisements
Track Severe Weather on mobile